Terminal Aerodrome Forecast
Issued by NWS

Home | Current Version | Previous Version | Text Only | Print | Product List | Glossary On
Versions: 1 2 3 4 5 6 7 8 9 10 11 12
060
FTUS45 KPSR 272339
TAFIPL
TAF
KIPL 272339Z 2800/2824 29012G23KT P6SM SKC
      TEMPO 2800/2802 28018G28KT
     FM280800 27008KT P6SM SKC
     FM281600 21006KT P6SM SKC
     FM282100 27012G20KT P6SM SKC=

USA.gov is the U.S. government's official web portal to all federal, state and local government web resources and services.